METAR Data
IDs: Format: Raw Decoded Include TAF

Data at: 2200 UTC 29 May 2020

PGUA 292130Z 08016KT 13SM -SHRA SCT008 BKN012 OVC042 25/23 A2999 RMK AO2A SHRAB30 CIG 011 RWY24L SLP146 PWINO $